Franklin, Louisiana
Current Conditions -  °F | °C
As of 6:53 PM on Monday 20 Oct 2014 (Local Time) from KARA Reporting Station
Clear Clear  
Wind Chill: 71°   Ceiling: Unl
Heat Index: 71°   Visibility: 10mi
Dew Point: 58°   Wind: 6mph
Humidity: 63%   Direction: 40°NE
Pressure: 30.01"   Gusts: NA
Location:  29.79°N, 91.5°W
Report Text: KARA 202353Z 04005KT 10SM CLR 22/14 A3001 RMK AO2 SLP163 T02170144 10278 20217 53004
Loading
Personal Weather Stations






























Interactive Weather Map New forecast layout! Learn more

10-Day Weather Forecast

Advertisements
Track Severe Weather on mobile